Time;durP1;ratioP1;P1;durP2;ratioP2;P2;SDS_P1;SDS_P2;PMS_P1;PMS_P2;Temp;Humidity;BMP_temperature;BMP_pressure;BME280_temperature;BME280_humidity;BME280_pressure;Samples;Min_cycle;Max_cycle;Signal;HPM_P1;HPM_P2
2023/01/14 00:01:15;;;;;;;17.13;2.83;;;7.70;99.90;;;;;;4860446;29;20057;-91
2023/01/14 00:03:47;;;;;;;19.55;2.97;;;7.70;99.90;;;;;;4859227;29;20045;-90
2023/01/14 00:06:16;;;;;;;24.27;3.10;;;7.70;99.90;;;;;;4843814;29;20049;-91
2023/01/14 00:08:42;;;;;;;23.88;3.00;;;7.70;99.90;;;;;;4860773;29;20093;-91
2023/01/14 00:11:10;;;;;;;28.10;3.38;;;7.70;99.90;;;;;;4860020;29;20110;-91
2023/01/14 00:13:44;;;;;;;16.20;2.78;;;7.70;99.90;;;;;;4844125;29;20049;-90
2023/01/14 00:16:13;;;;;;;21.85;3.13;;;7.70;99.90;;;;;;4843931;29;20076;-91
2023/01/14 00:18:39;;;;;;;18.13;2.83;;;7.70;99.90;;;;;;4842835;29;20044;-91
2023/01/14 00:21:07;;;;;;;22.38;3.40;;;7.70;99.90;;;;;;4843883;29;20116;-89
2023/01/14 00:23:35;;;;;;;16.15;3.25;;;7.80;99.90;;;;;;4843875;29;20503;-91
2023/01/14 00:26:06;;;;;;;24.98;3.25;;;7.70;99.90;;;;;;4859807;29;20098;-90
2023/01/14 00:28:35;;;;;;;18.90;2.78;;;7.70;99.90;;;;;;4860428;29;20053;-90
2023/01/14 00:31:07;;;;;;;15.80;3.00;;;7.70;99.90;;;;;;4844072;29;20208;-91
2023/01/14 00:33:33;;;;;;;19.35;2.75;;;7.70;99.90;;;;;;4835398;29;20095;-90
2023/01/14 00:35:58;;;;;;;18.42;2.63;;;7.70;99.90;;;;;;4825994;29;20050;-90
2023/01/14 00:38:24;;;;;;;21.85;2.85;;;7.70;99.90;;;;;;4841251;29;20514;-90
2023/01/14 00:41:01;;;;;;;20.95;2.85;;;7.70;99.90;;;;;;4825849;29;20053;-90
2023/01/14 00:43:30;;;;;;;13.45;2.65;;;7.80;99.90;;;;;;4846717;29;20410;-90
2023/01/14 00:45:56;;;;;;;21.90;3.28;;;7.70;99.90;;;;;;4843389;29;20049;-90
2023/01/14 00:48:22;;;;;;;18.27;3.03;;;7.70;99.90;;;;;;4843464;29;20042;-90
2023/01/14 00:50:47;;;;;;;20.92;2.63;;;7.70;99.90;;;;;;4843787;29;20048;-90
2023/01/14 00:53:13;;;;;;;19.38;3.28;;;7.70;99.90;;;;;;4860638;29;20049;-90
2023/01/14 00:55:39;;;;;;;15.98;3.15;;;7.70;99.90;;;;;;4847327;29;20406;-90
2023/01/14 00:58:04;;;;;;;20.50;3.00;;;7.70;99.90;;;;;;4846815;29;20057;-90
2023/01/14 01:00:30;;;;;;;24.80;3.20;;;7.70;99.90;;;;;;4863029;29;20085;-90
2023/01/14 01:02:57;;;;;;;20.35;2.75;;;7.70;99.90;;;;;;4846873;29;20081;-91
2023/01/14 01:05:23;;;;;;;15.48;2.75;;;7.70;99.90;;;;;;4846839;29;20571;-90
2023/01/14 01:07:48;;;;;;;16.58;2.92;;;7.60;99.90;;;;;;4846740;29;20077;-91
2023/01/14 01:10:14;;;;;;;18.10;2.72;;;7.60;99.90;;;;;;4846967;29;20049;-91
2023/01/14 01:12:40;;;;;;;16.52;2.92;;;7.60;99.90;;;;;;4863821;29;20080;-91
2023/01/14 01:15:06;;;;;;;21.52;3.88;;;7.60;99.90;;;;;;4831222;29;20510;-91
2023/01/14 01:17:32;;;;;;;18.23;2.90;;;7.60;99.90;;;;;;4863200;29;20053;-91
2023/01/14 01:19:58;;;;;;;20.48;3.05;;;7.50;99.90;;;;;;4863312;29;20045;-91
2023/01/14 01:22:23;;;;;;;19.98;2.75;;;7.50;99.90;;;;;;4846300;29;20053;-90
2023/01/14 01:24:52;;;;;;;13.50;2.30;;;7.50;99.90;;;;;;4863478;29;20052;-90
2023/01/14 01:27:17;;;;;;;20.45;3.03;;;7.50;99.90;;;;;;4863261;29;20049;-91
2023/01/14 01:29:43;;;;;;;19.13;2.70;;;7.50;99.90;;;;;;4846629;29;20052;-91
2023/01/14 01:32:11;;;;;;;17.60;2.55;;;7.50;99.90;;;;;;4846309;29;20388;-91
2023/01/14 01:34:37;;;;;;;20.98;3.10;;;7.40;99.90;;;;;;4854720;29;20046;-91
2023/01/14 01:37:03;;;;;;;18.98;3.63;;;7.40;99.90;;;;;;4846837;29;20046;-90
2023/01/14 01:39:28;;;;;;;18.20;2.97;;;7.40;99.90;;;;;;4846484;29;20046;-90
2023/01/14 01:41:54;;;;;;;21.48;3.30;;;7.40;99.90;;;;;;4846340;29;20101;-91
2023/01/14 01:44:19;;;;;;;17.02;2.95;;;7.40;99.90;;;;;;4846136;29;20391;-91
2023/01/14 01:46:45;;;;;;;21.55;3.15;;;7.40;99.90;;;;;;4846160;29;20485;-91
2023/01/14 01:49:15;;;;;;;18.88;3.00;;;7.40;99.90;;;;;;4861998;29;20041;-91
2023/01/14 01:51:57;;;;;;;14.02;2.30;;;7.40;99.90;;;;;;4846174;29;20042;-91
2023/01/14 01:54:32;;;;;;;23.20;3.33;;;7.40;99.90;;;;;;4846277;29;20052;-91
2023/01/14 01:56:59;;;;;;;27.55;3.13;;;7.40;99.90;;;;;;4845375;29;20049;-91
2023/01/14 01:59:27;;;;;;;17.52;2.92;;;7.40;99.90;;;;;;4845909;29;20057;-90
2023/01/14 02:01:54;;;;;;;18.40;3.40;;;7.40;99.90;;;;;;4846056;29;20053;-92
2023/01/14 02:04:20;;;;;;;16.40;2.78;;;7.50;99.90;;;;;;4845599;29;20125;-91
2023/01/14 02:06:46;;;;;;;17.08;2.80;;;7.40;99.90;;;;;;4835197;29;20050;-91
2023/01/14 02:09:12;;;;;;;24.33;3.60;;;7.50;99.90;;;;;;4843967;29;20492;-91
2023/01/14 02:11:53;;;;;;;17.13;2.38;;;7.40;99.90;;;;;;4843634;29;20038;-91
2023/01/14 02:14:28;;;;;;;20.60;2.90;;;7.40;99.90;;;;;;4843685;29;20061;-91
2023/01/14 02:17:11;;;;;;;24.77;3.35;;;7.50;99.90;;;;;;4843227;29;20046;-90
2023/01/14 02:19:46;;;;;;;19.30;3.53;;;7.40;99.90;;;;;;4828007;29;20089;-90
2023/01/14 02:22:11;;;;;;;22.85;3.17;;;7.40;99.90;;;;;;4860380;29;20106;-90
2023/01/14 02:24:50;;;;;;;21.38;2.28;;;7.40;99.90;;;;;;4861802;29;20049;-90
2023/01/14 02:27:16;;;;;;;19.17;3.00;;;7.50;99.90;;;;;;4845365;29;20053;-90
2023/01/14 02:29:56;;;;;;;23.40;3.40;;;7.40;99.90;;;;;;4860944;29;20050;-90
2023/01/14 02:33:01;;;;;;;21.13;3.30;;;7.40;99.90;;;;;;4861225;29;20499;-91
2023/01/14 02:35:31;;;;;;;22.13;2.95;;;7.50;99.90;;;;;;4817433;29;20115;-91
2023/01/14 02:38:12;;;;;;;20.42;3.00;;;7.40;99.90;;;;;;4845156;29;20600;-91
2023/01/14 02:40:53;;;;;;;21.60;3.58;;;7.40;99.90;;;;;;4846312;29;20049;-91
2023/01/14 02:46:21;;;;;;;20.98;2.83;;;7.40;99.90;;;;;;4861549;29;20045;-91
2023/01/14 02:48:49;;;;;;;21.40;2.88;;;7.40;99.90;;;;;;4861955;29;20056;-91
2023/01/14 02:51:15;;;;;;;21.35;3.10;;;7.40;99.90;;;;;;4845191;29;20097;-91
2023/01/14 02:53:41;;;;;;;17.15;3.08;;;7.40;99.90;;;;;;4861517;29;20469;-91
2023/01/14 02:56:10;;;;;;;13.88;2.58;;;7.40;99.90;;;;;;4844995;29;20049;-90
2023/01/14 02:58:57;;;;;;;21.77;2.83;;;7.40;99.90;;;;;;4845138;29;20070;-91
2023/01/14 03:01:32;;;;;;;20.98;3.55;;;7.30;99.90;;;;;;4844880;29;20100;-91
2023/01/14 03:04:13;;;;;;;20.33;2.95;;;7.30;99.90;;;;;;4861947;29;20387;-90
2023/01/14 03:06:45;;;;;;;17.52;3.00;;;7.30;99.90;;;;;;4844630;29;20049;-90
2023/01/14 03:09:17;;;;;;;15.88;2.67;;;7.30;99.90;;;;;;4861066;29;20046;-91
2023/01/14 03:11:45;;;;;;;18.75;3.15;;;7.30;99.90;;;;;;4861923;29;20120;-91
2023/01/14 03:14:27;;;;;;;15.82;2.10;;;7.20;99.90;;;;;;4861108;29;20081;-90
2023/01/14 03:17:13;;;;;;;21.67;2.97;;;7.20;99.90;;;;;;4843551;29;20065;-91
2023/01/14 03:19:43;;;;;;;15.45;2.78;;;7.20;99.90;;;;;;4845133;29;20056;-91
2023/01/14 03:22:10;;;;;;;18.95;3.28;;;7.20;99.90;;;;;;4860555;29;20041;-91
2023/01/14 03:24:39;;;;;;;21.30;3.20;;;7.10;99.90;;;;;;4861437;29;20495;-90
2023/01/14 03:27:13;;;;;;;20.67;3.65;;;7.10;99.90;;;;;;4844158;29;20392;-89
2023/01/14 03:29:41;;;;;;;;;;;7.10;99.90;;;;;;4844847;29;20057;-91
2023/01/14 03:32:28;;;;;;;23.92;3.05;;;7.00;99.90;;;;;;4844434;29;20299;-91
2023/01/14 03:35:10;;;;;;;25.05;3.78;;;7.00;99.90;;;;;;4860740;29;20068;-91
2023/01/14 03:37:43;;;;;;;17.65;3.08;;;7.00;99.90;;;;;;4844738;29;20045;-91
2023/01/14 03:40:10;;;;;;;;;;;7.00;99.90;;;;;;4861214;29;20128;-90
2023/01/14 03:42:42;;;;;;;20.17;2.85;;;6.90;99.90;;;;;;4860726;29;19931;-91
2023/01/14 03:45:25;;;;;;;19.70;2.70;;;6.90;99.90;;;;;;4861073;29;20049;-91
2023/01/14 03:47:51;;;;;;;16.30;2.40;;;6.90;99.90;;;;;;4860885;29;20050;-91
2023/01/14 03:50:23;;;;;;;19.55;2.88;;;6.90;99.90;;;;;;4860512;29;20109;-90
2023/01/14 03:53:21;;;;;;;17.15;2.60;;;6.90;99.90;;;;;;4860869;29;20045;-90
2023/01/14 03:56:24;;;;;;;20.05;2.90;;;6.90;99.90;;;;;;4860641;29;20559;-90
2023/01/14 03:59:03;;;;;;;15.25;2.85;;;6.90;99.90;;;;;;4844153;29;20475;-91
2023/01/14 04:01:39;;;;;;;11.90;2.20;;;6.90;99.90;;;;;;4833126;29;20106;-90
2023/01/14 04:04:09;;;;;;;23.42;3.10;;;6.90;99.90;;;;;;4841701;29;20045;-90
2023/01/14 04:06:35;;;;;;;19.17;2.80;;;6.80;99.90;;;;;;4856541;29;20141;-91
2023/01/14 04:09:00;;;;;;;24.25;3.40;;;6.80;99.90;;;;;;4841299;29;20054;-91
2023/01/14 04:11:26;;;;;;;15.07;2.63;;;6.80;99.90;;;;;;4825562;29;20050;-91
2023/01/14 04:16:36;;;;;;;15.60;2.83;;;6.80;99.90;;;;;;4855965;29;20085;-91
2023/01/14 04:19:01;;;;;;;19.42;3.45;;;6.70;99.90;;;;;;4861002;29;20081;-91
2023/01/14 04:21:30;;;;;;;16.27;2.50;;;6.70;99.90;;;;;;4844145;29;20041;-91
2023/01/14 04:23:55;;;;;;;17.77;2.80;;;6.70;99.90;;;;;;4843834;29;20053;-91
2023/01/14 04:26:21;;;;;;;19.45;3.08;;;6.70;99.90;;;;;;4843791;29;20050;-91
2023/01/14 04:28:47;;;;;;;18.08;2.80;;;6.70;99.90;;;;;;4862439;29;20057;-90
2023/01/14 04:31:12;;;;;;;19.48;2.90;;;6.60;99.90;;;;;;4846747;29;20128;-91
2023/01/14 04:33:38;;;;;;;17.65;2.70;;;6.70;99.90;;;;;;4863966;29;20045;-90
2023/01/14 04:36:04;;;;;;;18.05;2.67;;;6.60;99.90;;;;;;4847193;29;20042;-92
2023/01/14 04:38:29;;;;;;;18.25;3.05;;;6.60;99.90;;;;;;4847279;29;20049;-92
2023/01/14 04:40:55;;;;;;;16.58;3.05;;;6.60;99.90;;;;;;4848113;29;20064;-92
2023/01/14 04:43:21;;;;;;;16.80;2.78;;;6.60;99.90;;;;;;4864051;29;20049;-91
2023/01/14 04:45:54;;;;;;;20.92;3.35;;;6.60;99.90;;;;;;4864329;29;20518;-91
2023/01/14 04:48:22;;;;;;;16.58;3.03;;;6.60;99.90;;;;;;4847113;29;20055;-91
2023/01/14 04:50:50;;;;;;;17.40;2.63;;;6.50;99.90;;;;;;4847352;29;20053;-91
2023/01/14 04:53:23;;;;;;;19.52;2.78;;;6.60;99.90;;;;;;4846503;29;20090;-91
2023/01/14 04:55:55;;;;;;;21.55;2.95;;;6.50;99.90;;;;;;4847889;29;20053;-90
2023/01/14 04:58:21;;;;;;;20.50;2.75;;;6.50;99.90;;;;;;4864042;29;20140;-91
2023/01/14 05:00:47;;;;;;;18.42;2.88;;;6.50;99.90;;;;;;4857141;29;20049;-90
2023/01/14 05:03:15;;;;;;;18.52;2.67;;;6.40;99.90;;;;;;4847204;29;20049;-90
2023/01/14 05:05:44;;;;;;;26.05;3.40;;;6.40;99.90;;;;;;4846283;29;20452;-90
2023/01/14 05:08:11;;;;;;;21.17;3.22;;;6.40;99.90;;;;;;4846789;29;20140;-89
2023/01/14 05:10:37;;;;;;;19.13;2.78;;;6.40;99.90;;;;;;4846837;29;20045;-90
2023/01/14 05:13:05;;;;;;;21.25;3.08;;;6.40;99.90;;;;;;4846259;29;20411;-90
2023/01/14 05:15:37;;;;;;;19.33;2.80;;;6.40;99.90;;;;;;4846730;29;20089;-90
2023/01/14 05:18:03;;;;;;;22.30;3.05;;;6.40;99.90;;;;;;4863235;29;20132;-90
2023/01/14 05:20:30;;;;;;;20.90;3.20;;;6.40;99.90;;;;;;4862052;29;20034;-90
2023/01/14 05:23:01;;;;;;;22.13;3.00;;;6.30;99.90;;;;;;4847260;29;20093;-90
2023/01/14 05:25:28;;;;;;;17.48;2.88;;;6.40;99.90;;;;;;4862963;29;20396;-90
2023/01/14 05:27:57;;;;;;;19.08;2.58;;;6.30;99.90;;;;;;4846624;29;20041;-89
2023/01/14 05:30:22;;;;;;;23.80;3.20;;;6.30;99.90;;;;;;4862985;29;20069;-90
2023/01/14 05:32:48;;;;;;;19.55;3.55;;;6.30;99.90;;;;;;4846667;29;20140;-90
2023/01/14 05:35:13;;;;;;;24.70;3.63;;;6.30;99.90;;;;;;4862677;29;20514;-90
2023/01/14 05:37:39;;;;;;;23.88;3.60;;;6.30;99.90;;;;;;4863156;29;20045;-90
2023/01/14 05:40:05;;;;;;;25.20;3.90;;;6.30;99.90;;;;;;4845256;29;20049;-90
2023/01/14 05:48:06;;;;;;;22.45;4.00;;;6.30;99.90;;;;;;4860786;29;20483;-91
2023/01/14 05:50:32;;;;;;;25.30;3.53;;;6.30;99.90;;;;;;4862482;29;20073;-90
2023/01/14 05:52:57;;;;;;;19.58;3.30;;;6.30;99.90;;;;;;4846700;29;20191;-90
2023/01/14 05:55:26;;;;;;;24.17;3.80;;;6.30;99.90;;;;;;4861983;29;20045;-90
2023/01/14 05:57:51;;;;;;;21.60;3.65;;;6.30;99.90;;;;;;4845759;29;20121;-90
2023/01/14 06:08:32;;;;;;;23.13;3.85;;;6.30;99.90;;;;;;4862652;29;20060;-91
2023/01/14 06:10:59;;;;;;;30.52;4.47;;;6.30;99.90;;;;;;4861997;29;20045;-90
2023/01/14 06:13:24;;;;;;;25.08;3.83;;;6.30;99.90;;;;;;4833035;29;20092;-90
2023/01/14 06:15:55;;;;;;;22.50;3.70;;;6.20;99.90;;;;;;4844127;29;20073;-90
2023/01/14 06:18:23;;;;;;;23.90;4.18;;;6.30;99.90;;;;;;4861415;29;20078;-89
2023/01/14 06:20:51;;;;;;;28.60;5.45;;;6.20;99.90;;;;;;4845871;29;20046;-88
2023/01/14 06:23:17;;;;;;;28.75;4.90;;;6.30;99.90;;;;;;4861596;29;20675;-90
2023/01/14 06:25:45;;;;;;;29.42;5.82;;;6.20;99.90;;;;;;4845814;29;20038;-90
2023/01/14 06:28:10;;;;;;;26.38;4.63;;;6.20;99.90;;;;;;4844692;29;20049;-89
2023/01/14 06:30:36;;;;;;;28.25;5.10;;;6.20;99.90;;;;;;4844864;29;20049;-91
2023/01/14 06:33:01;;;;;;;25.42;4.82;;;6.20;99.90;;;;;;4845877;29;20049;-91
2023/01/14 06:35:30;;;;;;;31.92;5.93;;;6.20;99.90;;;;;;4846133;29;20053;-91
2023/01/14 06:37:56;;;;;;;30.88;6.65;;;6.20;99.90;;;;;;4844259;29;20049;-89
2023/01/14 06:40:21;;;;;;;31.98;5.53;;;6.20;99.90;;;;;;4862223;29;20124;-90
2023/01/14 06:42:47;;;;;;;33.58;5.97;;;6.20;99.90;;;;;;4862439;29;20086;-88
2023/01/14 06:45:12;;;;;;;30.85;6.10;;;6.20;99.90;;;;;;4843278;29;20038;-89
2023/01/14 06:47:38;;;;;;;30.48;5.00;;;6.20;99.90;;;;;;4845348;29;20061;-89
2023/01/14 06:50:05;;;;;;;28.17;5.13;;;6.20;99.90;;;;;;4861740;29;20053;-90
2023/01/14 06:52:30;;;;;;;32.08;5.45;;;6.20;99.90;;;;;;4860570;29;20056;-90
2023/01/14 06:54:58;;;;;;;31.00;5.25;;;6.20;99.90;;;;;;4845538;29;20041;-90
2023/01/14 06:57:24;;;;;;;30.05;5.53;;;6.20;99.90;;;;;;4844954;29;20555;-90
2023/01/14 06:59:50;;;;;;;31.02;5.43;;;6.20;99.90;;;;;;4860856;29;20053;-90
2023/01/14 07:02:16;;;;;;;28.75;4.88;;;6.20;99.90;;;;;;4860893;29;20045;-90
2023/01/14 07:04:43;;;;;;;31.60;5.32;;;6.30;99.90;;;;;;4845000;29;20046;-90
2023/01/14 07:07:52;;;;;;;32.88;5.53;;;6.20;99.90;;;;;;4843851;29;20487;-90
2023/01/14 07:10:18;;;;;;;29.70;5.00;;;6.30;99.90;;;;;;4844434;29;20061;-89
2023/01/14 07:12:45;;;;;;;32.67;5.50;;;6.30;99.90;;;;;;4844619;29;20045;-89
2023/01/14 07:15:11;;;;;;;33.67;5.88;;;6.30;99.90;;;;;;4861566;29;20117;-89
2023/01/14 07:17:37;;;;;;;32.10;5.38;;;6.30;99.90;;;;;;4861189;29;20443;-89
2023/01/14 07:20:04;;;;;;;37.45;5.57;;;6.30;99.90;;;;;;4842931;29;20037;-89
2023/01/14 07:22:30;;;;;;;33.17;5.45;;;6.30;99.90;;;;;;4844113;29;20061;-89
2023/01/14 07:24:56;;;;;;;29.00;4.88;;;6.30;99.90;;;;;;4861239;29;20084;-88
2023/01/14 07:27:21;;;;;;;28.58;4.90;;;6.30;99.90;;;;;;4840255;29;20069;-89
2023/01/14 07:29:47;;;;;;;22.90;4.57;;;6.40;99.90;;;;;;4838938;29;20041;-90
2023/01/14 07:32:13;;;;;;;28.08;5.43;;;6.40;99.90;;;;;;4842452;29;20104;-89
2023/01/14 07:34:38;;;;;;;34.65;5.72;;;6.40;99.90;;;;;;4860311;29;20130;-89
2023/01/14 07:37:04;;;;;;;27.67;4.97;;;6.40;99.90;;;;;;4861165;29;20463;-90
2023/01/14 07:39:30;;;;;;;33.53;4.90;;;6.40;99.90;;;;;;4844477;29;20052;-89
2023/01/14 07:41:55;;;;;;;28.85;4.72;;;6.40;99.90;;;;;;4844132;29;20170;-89
2023/01/14 07:44:23;;;;;;;29.70;5.47;;;6.40;99.90;;;;;;4844397;29;20110;-90
2023/01/14 07:46:54;;;;;;;31.00;5.72;;;6.50;99.90;;;;;;4844161;29;20053;-90
2023/01/14 07:49:21;;;;;;;25.67;5.00;;;6.40;99.90;;;;;;4843829;29;20436;-90
2023/01/14 07:51:48;;;;;;;25.80;4.97;;;6.50;99.90;;;;;;4844275;29;20060;-90
2023/01/14 07:54:14;;;;;;;21.88;4.60;;;6.50;99.90;;;;;;4859830;29;21533;-88
2023/01/14 07:56:40;;;;;;;29.45;5.65;;;6.50;99.90;;;;;;4859837;29;20407;-88
2023/01/14 07:59:09;;;;;;;25.52;4.90;;;6.50;99.90;;;;;;4830713;29;20109;-88
2023/01/14 08:05:40;;;;;;;22.33;4.50;;;6.50;99.90;;;;;;4843632;29;20125;-93
2023/01/14 08:08:38;;;;;;;25.25;4.72;;;6.50;99.90;;;;;;4845267;29;20061;-95
2023/01/14 08:11:04;;;;;;;29.30;5.13;;;6.50;99.90;;;;;;4805604;29;20058;-89
2023/01/14 08:13:31;;;;;;;25.95;5.10;;;6.50;99.90;;;;;;4825716;29;20057;-89
2023/01/14 08:15:58;;;;;;;28.83;4.57;;;6.50;99.90;;;;;;4825230;29;20049;-89
2023/01/14 08:18:24;;;;;;;25.77;4.70;;;6.50;99.90;;;;;;4842210;29;20057;-89
2023/01/14 08:21:16;;;;;;;28.70;4.72;;;6.50;99.90;;;;;;4826237;29;20053;-90
2023/01/14 08:23:42;;;;;;;24.73;4.28;;;6.60;99.90;;;;;;4822802;29;20411;-89
2023/01/14 08:26:11;;;;;;;26.90;4.30;;;6.50;99.90;;;;;;4825787;29;20046;-89
2023/01/14 08:28:38;;;;;;;21.52;4.47;;;6.60;99.90;;;;;;4825687;29;20392;-89
2023/01/14 08:31:15;;;;;;;29.70;4.45;;;6.60;99.90;;;;;;4825402;29;20479;-90
2023/01/14 08:33:42;;;;;;;27.15;4.60;;;6.60;99.90;;;;;;4826178;29;20050;-90
2023/01/14 08:36:13;;;;;;;24.00;3.97;;;6.60;99.90;;;;;;4825549;29;20183;-90
2023/01/14 08:38:41;;;;;;;28.63;4.95;;;6.60;99.90;;;;;;4825401;29;20054;-90
2023/01/14 08:41:10;;;;;;;22.77;4.28;;;6.60;99.90;;;;;;4825517;29;20491;-90
2023/01/14 08:43:36;;;;;;;22.25;4.20;;;6.60;99.90;;;;;;4825511;29;20448;-90
2023/01/14 08:46:03;;;;;;;19.85;4.20;;;6.60;99.90;;;;;;4842314;29;20425;-90
2023/01/14 08:48:30;;;;;;;20.05;3.88;;;6.60;99.90;;;;;;4825258;29;20136;-89
2023/01/14 08:51:06;;;;;;;22.85;3.83;;;6.60;99.90;;;;;;4824722;29;20506;-89
2023/01/14 08:53:35;;;;;;;23.10;3.78;;;6.70;99.90;;;;;;4825727;29;20056;-88
2023/01/14 08:56:01;;;;;;;21.13;3.80;;;6.60;99.90;;;;;;4841721;29;20558;-89
2023/01/14 08:58:27;;;;;;;21.50;3.25;;;6.60;99.90;;;;;;4824228;29;20101;-89
2023/01/14 09:01:00;;;;;;;19.20;4.15;;;6.70;99.90;;;;;;4825419;29;20089;-88
2023/01/14 09:03:30;;;;;;;20.77;3.53;;;6.70;99.90;;;;;;4825434;29;20133;-89
2023/01/14 09:05:56;;;;;;;29.23;4.50;;;6.70;99.90;;;;;;4824872;29;20395;-88
2023/01/14 09:19:26;;;;;;;21.60;3.72;;;6.60;99.90;;;;;;4844097;29;20049;-89
2023/01/14 09:21:52;;;;;;;18.23;3.60;;;6.60;99.90;;;;;;4828379;29;20065;-89
2023/01/14 09:24:18;;;;;;;20.92;3.92;;;6.70;99.90;;;;;;4844585;29;20046;-89
2023/01/14 09:26:43;;;;;;;19.10;3.50;;;6.60;99.90;;;;;;4827532;29;20053;-89
2023/01/14 09:29:09;;;;;;;18.20;3.38;;;6.70;99.90;;;;;;4828055;29;20046;-89
2023/01/14 09:31:35;;;;;;;21.45;3.88;;;6.70;99.90;;;;;;4828699;29;20054;-88
2023/01/14 09:34:00;;;;;;;19.20;3.15;;;6.60;99.90;;;;;;4827445;29;20054;-89
2023/01/14 09:36:26;;;;;;;23.25;3.40;;;6.70;99.90;;;;;;4828182;29;20050;-89
2023/01/14 09:38:52;;;;;;;20.17;3.08;;;6.70;99.90;;;;;;4845000;29;20471;-89
2023/01/14 09:41:30;;;;;;;15.25;3.20;;;6.70;99.90;;;;;;4843600;29;20094;-89
2023/01/14 09:43:56;;;;;;;15.23;2.80;;;6.70;99.90;;;;;;4844836;29;20117;-88
2023/01/14 09:46:25;;;;;;;15.98;2.55;;;6.70;99.90;;;;;;4828085;29;20478;-89
2023/01/14 09:48:52;;;;;;;18.50;3.15;;;6.70;99.90;;;;;;4844038;29;20171;-89
2023/01/14 09:51:55;;;;;;;16.20;3.35;;;6.70;99.90;;;;;;4827570;29;20050;-89
2023/01/14 09:54:25;;;;;;;15.27;3.05;;;6.70;99.90;;;;;;4826965;29;20045;-88
2023/01/14 09:57:11;;;;;;;15.40;3.03;;;6.70;99.90;;;;;;4844424;29;20046;-89
2023/01/14 09:59:50;;;;;;;17.77;3.03;;;6.70;99.90;;;;;;4860317;29;20470;-89
2023/01/14 10:02:20;;;;;;;14.30;2.60;;;6.70;99.90;;;;;;4861723;29;20483;-88
2023/01/14 10:05:00;;;;;;;18.95;2.97;;;6.70;99.90;;;;;;4862616;29;20045;-89
2023/01/14 10:07:27;;;;;;;10.63;2.25;;;6.80;99.90;;;;;;4845938;29;20152;-88
2023/01/14 10:09:55;;;;;;;14.38;2.47;;;6.80;99.90;;;;;;4861969;29;20049;-88
2023/01/14 10:12:42;;;;;;;11.82;2.33;;;6.80;99.90;;;;;;4845775;29;20080;-88
2023/01/14 10:15:10;;;;;;;11.68;2.42;;;6.80;99.90;;;;;;4845455;29;20097;-88
2023/01/14 10:17:41;;;;;;;12.75;2.35;;;6.80;99.90;;;;;;4862504;29;20053;-89
2023/01/14 10:20:21;;;;;;;11.95;2.08;;;6.80;99.90;;;;;;4860802;29;20157;-88
2023/01/14 10:22:56;;;;;;;12.15;2.17;;;6.80;99.90;;;;;;4845141;29;20061;-88
2023/01/14 10:25:23;;;;;;;11.32;2.15;;;6.80;99.90;;;;;;4845462;29;20534;-89
2023/01/14 10:27:55;;;;;;;9.52;2.25;;;6.80;99.90;;;;;;4845310;29;20097;-88
2023/01/14 10:30:29;;;;;;;10.43;1.73;;;6.80;99.90;;;;;;4844877;29;20046;-88
2023/01/14 10:32:57;;;;;;;10.02;1.98;;;6.90;99.90;;;;;;4845766;29;20057;-88
2023/01/14 10:35:31;;;;;;;6.07;1.60;;;6.90;99.90;;;;;;4845628;29;20042;-88
2023/01/14 10:37:57;;;;;;;10.45;1.70;;;6.90;99.90;;;;;;4845155;29;20053;-89
2023/01/14 10:40:25;;;;;;;10.30;2.15;;;6.90;99.90;;;;;;4845410;29;20053;-89
2023/01/14 10:42:53;;;;;;;8.23;1.70;;;6.90;99.90;;;;;;4845403;29;20050;-88
2023/01/14 10:45:19;;;;;;;8.77;1.88;;;6.90;99.90;;;;;;4860787;29;20049;-88
2023/01/14 10:47:47;;;;;;;9.70;2.08;;;7.00;99.90;;;;;;4861931;29;20547;-88
2023/01/14 10:50:23;;;;;;;9.02;1.67;;;7.00;99.90;;;;;;4844408;29;20109;-88
2023/01/14 10:53:12;;;;;;;5.90;1.65;;;7.00;99.90;;;;;;4845461;29;20087;-89
2023/01/14 10:55:49;;;;;;;7.43;2.00;;;7.00;99.90;;;;;;4861800;29;20105;-88
2023/01/14 10:58:18;;;;;;;7.07;1.60;;;7.00;99.90;;;;;;4860686;29;20114;-88
2023/01/14 11:00:55;;;;;;;8.88;1.92;;;7.10;99.90;;;;;;4862000;29;20046;-88
2023/01/14 11:03:25;;;;;;;9.50;1.65;;;7.10;99.90;;;;;;4845046;29;20071;-88
2023/01/14 11:05:58;;;;;;;7.65;1.60;;;7.10;99.90;;;;;;4861193;29;20040;-88
2023/01/14 11:08:39;;;;;;;8.65;1.83;;;7.10;99.90;;;;;;4844650;29;20077;-89
2023/01/14 11:11:11;;;;;;;8.77;1.70;;;7.20;99.90;;;;;;4845100;29;20078;-88
2023/01/14 11:13:41;;;;;;;6.28;1.73;;;7.20;99.90;;;;;;4844137;29;20041;-88
2023/01/14 11:16:28;;;;;;;6.32;1.50;;;7.20;99.90;;;;;;4861270;29;20049;-89
2023/01/14 11:18:57;;;;;;;5.22;1.40;;;7.20;99.90;;;;;;4860880;29;20046;-89
2023/01/14 11:21:24;;;;;;;6.95;1.48;;;7.20;99.90;;;;;;4845026;29;20050;-89
2023/01/14 11:23:56;;;;;;;7.00;1.52;;;7.20;99.90;;;;;;4844587;29;20174;-89
2023/01/14 11:26:29;;;;;;;6.53;1.60;;;7.20;99.90;;;;;;4843700;29;20057;-89
2023/01/14 11:29:23;;;;;;;7.88;1.88;;;7.30;99.90;;;;;;4844563;29;20048;-90
2023/01/14 11:31:55;;;;;;;5.28;1.60;;;7.30;99.90;;;;;;4844989;29;20522;-89
2023/01/14 11:34:20;;;;;;;9.77;2.10;;;7.30;99.90;;;;;;4843506;29;20057;-89
2023/01/14 11:36:46;;;;;;;7.70;1.85;;;7.30;99.90;;;;;;4873961;29;20056;-89
2023/01/14 11:39:19;;;;;;;7.32;1.60;;;7.30;99.90;;;;;;4850283;29;20049;-89
2023/01/14 11:41:44;;;;;;;5.45;1.90;;;7.30;99.90;;;;;;4860309;29;20060;-89
2023/01/14 11:44:10;;;;;;;11.70;1.90;;;7.30;99.90;;;;;;4844497;29;20398;-88
2023/01/14 11:46:41;;;;;;;7.00;1.70;;;7.30;99.90;;;;;;4848082;29;20056;-89
2023/01/14 11:49:15;;;;;;;5.35;1.35;;;7.30;99.90;;;;;;4849753;29;20053;-89
2023/01/14 11:51:54;;;;;;;7.82;1.90;;;7.30;99.90;;;;;;4862608;29;20052;-88
2023/01/14 11:54:19;;;;;;;6.40;1.42;;;7.30;99.90;;;;;;4843370;29;20053;-89
2023/01/14 11:56:46;;;;;;;4.68;1.30;;;7.40;99.90;;;;;;4844505;29;20113;-88
2023/01/14 11:59:28;;;;;;;6.18;1.23;;;7.40;99.90;;;;;;4844103;29;20140;-88
2023/01/14 12:02:26;;;;;;;5.18;1.40;;;7.40;99.90;;;;;;4843955;29;20075;-88
2023/01/14 12:05:12;;;;;;;5.82;1.33;;;7.40;99.90;;;;;;4844408;29;20136;-89
2023/01/14 12:07:47;;;;;;;9.50;1.73;;;7.40;99.90;;;;;;4843524;29;20049;-89
2023/01/14 12:10:22;;;;;;;4.72;1.40;;;7.40;99.90;;;;;;4844035;29;20042;-89
2023/01/14 12:19:01;;;;;;;5.43;1.58;;;7.50;99.90;;;;;;4860594;29;20507;-88
2023/01/14 12:21:47;;;;;;;6.00;1.13;;;7.50;99.90;;;;;;4844176;29;20053;-88
2023/01/14 12:24:29;;;;;;;3.55;1.23;;;7.50;99.90;;;;;;4843905;29;20045;-88
2023/01/14 12:26:57;;;;;;;4.85;1.20;;;7.50;99.90;;;;;;4843798;29;20065;-88
2023/01/14 12:29:27;;;;;;;5.53;1.35;;;7.50;99.90;;;;;;4859499;29;20049;-88
2023/01/14 12:32:01;;;;;;;2.90;1.00;;;7.60;99.90;;;;;;4844709;29;20494;-89
2023/01/14 12:34:32;;;;;;;;;;;7.60;99.90;;;;;;4860974;29;20102;-88
2023/01/14 12:37:39;;;;;;;5.55;1.20;;;7.60;99.90;;;;;;4859893;29;20404;-88
2023/01/14 12:46:13;;;;;;;3.08;0.98;;;7.70;99.90;;;;;;4859023;29;20049;-89
2023/01/14 12:48:40;;;;;;;2.78;1.10;;;7.80;99.90;;;;;;4860719;29;20450;-89
2023/01/14 12:51:05;;;;;;;5.70;1.20;;;7.90;99.90;;;;;;4863635;29;20077;-88
2023/01/14 12:53:45;;;;;;;3.03;1.00;;;7.90;99.90;;;;;;4847264;29;20136;-88
2023/01/14 12:56:28;;;;;;;3.58;1.00;;;8.00;99.90;;;;;;4863646;29;20074;-88
2023/01/14 12:59:08;;;;;;;3.28;1.10;;;8.00;99.90;;;;;;4846414;29;20140;-88
2023/01/14 13:01:49;;;;;;;3.88;1.10;;;8.00;99.90;;;;;;4847225;29;20053;-88
2023/01/14 13:04:28;;;;;;;4.35;1.10;;;8.10;99.90;;;;;;4846265;29;20045;-88
2023/01/14 13:07:03;;;;;;;5.88;1.08;;;8.10;99.90;;;;;;4847063;29;20491;-87
2023/01/14 13:09:44;;;;;;;3.58;1.00;;;8.20;99.90;;;;;;4846729;29;20444;-88
2023/01/14 13:12:27;;;;;;;6.35;1.05;;;8.30;99.90;;;;;;4846110;29;20045;-89
2023/01/14 13:15:02;;;;;;;3.88;0.90;;;8.30;99.90;;;;;;4847267;29;20045;-88
2023/01/14 13:17:38;;;;;;;3.17;0.98;;;8.40;99.90;;;;;;4846792;29;20132;-88
2023/01/14 13:20:19;;;;;;;4.88;1.02;;;8.40;99.90;;;;;;4862975;29;20053;-88
2023/01/14 13:22:52;;;;;;;4.03;0.88;;;8.50;99.90;;;;;;4847152;29;20105;-88
2023/01/14 13:25:35;;;;;;;2.50;0.77;;;8.50;99.90;;;;;;4845823;29;20502;-89
2023/01/14 13:28:26;;;;;;;4.07;0.80;;;8.50;99.90;;;;;;4846356;29;20060;-88
2023/01/14 13:30:59;;;;;;;2.45;0.90;;;8.50;99.90;;;;;;4858591;29;20059;-87
2023/01/14 13:33:32;;;;;;;3.97;0.90;;;8.60;99.90;;;;;;4861975;29;20499;-88
2023/01/14 13:36:10;;;;;;;3.60;1.08;;;8.60;99.90;;;;;;4846597;29;20178;-88
2023/01/14 13:38:39;;;;;;;3.25;0.80;;;8.60;99.90;;;;;;4847120;29;20050;-88
2023/01/14 13:41:06;;;;;;;2.33;0.80;;;8.70;99.90;;;;;;4845791;29;20056;-88
2023/01/14 13:43:53;;;;;;;3.25;1.30;;;8.70;99.90;;;;;;4846627;29;20086;-88
2023/01/14 13:46:26;;;;;;;5.90;2.58;;;8.80;99.90;;;;;;4861866;29;20132;-88
2023/01/14 13:48:55;;;;;;;6.32;3.17;;;8.80;99.90;;;;;;4862976;29;20399;-88
2023/01/14 13:51:45;;;;;;;5.97;2.20;;;8.80;99.90;;;;;;4862657;29;20042;-88
2023/01/14 13:54:10;;;;;;;1.98;0.90;;;8.80;99.90;;;;;;4845231;29;20053;-88
2023/01/14 13:56:44;;;;;;;3.85;1.20;;;8.80;99.90;;;;;;4846398;29;20100;-88